Time;durP1;ratioP1;P1;durP2;ratioP2;P2;SDS_P1;SDS_P2;PMS_P1;PMS_P2;Temp;Humidity;BMP_temperature;BMP_pressure;BME280_temperature;BME280_humidity;BME280_pressure;Samples;Min_cycle;Max_cycle;Signal;HPM_P1;HPM_P2
2022/04/10 00:02:25;;;;;;;6.47;1.92;;;;;;;4.91;70.11;99779.66;5090898;28;20048;-60
2022/04/10 00:04:52;;;;;;;8.10;2.58;;;;;;;4.89;70.31;99784.06;5090573;28;20046;-60
2022/04/10 00:07:19;;;;;;;4.03;1.65;;;;;;;4.86;70.41;99776.34;5090739;28;20052;-60
2022/04/10 00:09:45;;;;;;;4.55;1.80;;;;;;;4.85;70.49;99783.31;5090382;28;20044;-60
2022/04/10 00:12:12;;;;;;;7.45;2.25;;;;;;;4.83;70.31;99780.75;5090662;28;20413;-62
2022/04/10 00:14:38;;;;;;;4.60;1.83;;;;;;;4.82;70.62;99776.44;5094182;28;20435;-60
2022/04/10 00:17:05;;;;;;;5.97;2.05;;;;;;;4.80;70.47;99778.25;5093946;28;20074;-61
2022/04/10 00:19:32;;;;;;;7.18;1.70;;;;;;;4.80;70.54;99793.03;5092953;28;20048;-60
2022/04/10 00:21:59;;;;;;;7.75;1.60;;;;;;;4.79;70.50;99788.75;5092570;28;20044;-60
2022/04/10 00:24:25;;;;;;;7.85;2.40;;;;;;;4.78;70.49;99792.22;5093816;28;20071;-60
2022/04/10 00:26:52;;;;;;;4.68;1.80;;;;;;;4.76;70.51;99792.31;5093461;28;20767;-60
2022/04/10 00:29:19;;;;;;;5.45;1.95;;;;;;;4.74;70.58;99788.03;5092205;28;20480;-61
2022/04/10 00:31:46;;;;;;;6.38;1.65;;;;;;;4.73;70.97;99792.38;5093351;28;20052;-60
2022/04/10 00:34:13;;;;;;;6.65;2.03;;;;;;;4.73;70.88;99787.19;5093229;28;20052;-62
2022/04/10 00:36:40;;;;;;;5.82;2.50;;;;;;;4.71;71.03;99796.78;5093242;28;20044;-60
2022/04/10 00:39:06;;;;;;;6.13;1.58;;;;;;;4.72;71.23;99795.03;5093268;28;20109;-64
2022/04/10 00:41:34;;;;;;;7.97;2.08;;;;;;;4.73;71.50;99792.38;5093130;28;20055;-62
2022/04/10 00:44:11;;;;;;;7.15;1.75;;;;;;;4.72;70.94;99793.31;5092098;28;20548;-60
2022/04/10 00:46:38;;;;;;;8.10;2.33;;;;;;;4.78;71.58;99794.84;5091665;28;20463;-60
2022/04/10 00:49:05;;;;;;;7.78;2.30;;;;;;;4.78;71.54;99800.03;5091861;28;20054;-61
2022/04/10 00:51:43;;;;;;;9.38;2.08;;;;;;;4.81;71.64;99794.75;5093062;28;20056;-60
2022/04/10 00:54:13;;;;;;;6.70;1.63;;;;;;;4.82;71.63;99794.69;5091826;28;20044;-60
2022/04/10 00:56:40;;;;;;;6.20;1.90;;;;;;;4.85;71.44;99796.34;5091630;28;20052;-60
2022/04/10 00:59:06;;;;;;;6.18;1.80;;;;;;;4.85;71.38;99798.97;5092583;28;20055;-65
2022/04/10 01:01:34;;;;;;;8.43;2.15;;;;;;;4.85;71.29;99803.34;5092953;28;20040;-62
2022/04/10 01:04:22;;;;;;;5.72;1.77;;;;;;;4.86;71.45;99807.66;5091827;28;20048;-61
2022/04/10 01:06:57;;;;;;;7.70;1.70;;;;;;;4.83;71.29;99804.22;5092566;28;20048;-60
2022/04/10 01:09:24;;;;;;;6.75;1.95;;;;;;;4.85;71.26;99811.16;5090993;28;20442;-61
2022/04/10 01:11:54;;;;;;;9.73;2.15;;;;;;;4.83;71.17;99803.38;5091330;28;20048;-60
2022/04/10 01:14:21;;;;;;;5.70;2.03;;;;;;;4.83;71.59;99813.81;5092606;28;20062;-60
2022/04/10 01:16:48;;;;;;;7.80;2.40;;;;;;;4.83;70.99;99804.22;5092518;28;20561;-61
2022/04/10 01:19:19;;;;;;;6.22;2.03;;;;;;;4.82;70.83;99806.88;5091034;28;20056;-60
2022/04/10 01:21:48;;;;;;;11.15;1.92;;;;;;;4.81;71.22;99795.59;5092291;28;20134;-60
2022/04/10 01:24:15;;;;;;;7.15;2.00;;;;;;;4.80;71.10;99809.56;5091021;28;20071;-60
2022/04/10 01:26:43;;;;;;;5.22;2.05;;;;;;;4.80;71.01;99808.69;5091007;28;20097;-61
2022/04/10 01:29:12;;;;;;;7.25;2.08;;;;;;;4.78;71.21;99798.31;5092238;28;20044;-60
2022/04/10 01:31:42;;;;;;;8.25;2.60;;;;;;;4.76;71.24;99797.50;5092182;28;20055;-60
2022/04/10 01:34:11;;;;;;;7.45;2.05;;;;;;;4.74;71.32;99796.69;5090885;28;20056;-60
2022/04/10 01:36:38;;;;;;;6.45;2.38;;;;;;;4.73;71.11;99802.81;5091913;28;20043;-60
2022/04/10 01:39:06;;;;;;;10.00;2.30;;;;;;;4.71;71.13;99806.38;5092239;28;20458;-65
2022/04/10 01:41:36;;;;;;;9.85;2.40;;;;;;;4.70;71.10;99813.34;5090853;28;20059;-60
2022/04/10 01:44:05;;;;;;;10.43;2.85;;;;;;;4.66;71.01;99802.16;5090681;28;20048;-60
2022/04/10 01:46:33;;;;;;;6.93;2.70;;;;;;;4.65;71.04;99818.72;5090526;28;20389;-60
2022/04/10 01:48:59;;;;;;;6.72;2.22;;;;;;;4.63;70.94;99809.25;5090576;28;20050;-60
2022/04/10 01:51:27;;;;;;;9.07;2.85;;;;;;;4.61;71.21;99808.41;5091801;28;20093;-59
2022/04/10 01:53:54;;;;;;;8.13;2.00;;;;;;;4.59;71.32;99811.06;5090630;28;20067;-61
2022/04/10 01:56:21;;;;;;;4.72;2.03;;;;;;;4.56;71.33;99812.03;5090599;28;20044;-62
2022/04/10 01:58:48;;;;;;;11.32;2.40;;;;;;;4.54;71.37;99813.84;5090684;28;20056;-62
2022/04/10 02:01:16;;;;;;;5.63;2.10;;;;;;;4.53;71.35;99811.28;5090210;28;20052;-60
2022/04/10 02:03:46;;;;;;;3.95;2.10;;;;;;;4.51;71.40;99808.72;5090162;28;20087;-60
2022/04/10 02:06:14;;;;;;;7.95;2.35;;;;;;;4.49;71.41;99818.31;5090415;28;20056;-61
2022/04/10 02:08:42;;;;;;;5.13;2.03;;;;;;;4.47;71.54;99812.31;5090135;28;20064;-61
2022/04/10 02:11:14;;;;;;;5.82;2.10;;;;;;;4.46;71.29;99821.03;5089696;28;20508;-60
2022/04/10 02:13:42;;;;;;;6.22;2.33;;;;;;;4.46;71.62;99815.81;5090256;28;20048;-62
2022/04/10 02:16:14;;;;;;;10.93;2.17;;;;;;;4.43;71.24;99821.13;5090918;28;20048;-60
2022/04/10 02:18:41;;;;;;;6.30;3.13;;;;;;;4.44;71.22;99820.22;5091349;28;20076;-61
2022/04/10 02:21:08;;;;;;;7.28;2.42;;;;;;;4.42;71.41;99820.25;5090834;28;20048;-60
2022/04/10 02:23:34;;;;;;;6.53;2.05;;;;;;;4.41;71.32;99818.56;5091081;28;20492;-60
2022/04/10 02:26:02;;;;;;;9.30;2.63;;;;;;;4.40;71.45;99821.22;5089620;28;20056;-61
2022/04/10 02:28:28;;;;;;;7.32;2.58;;;;;;;4.38;71.62;99812.59;5089680;28;20052;-61
2022/04/10 02:30:55;;;;;;;7.18;2.40;;;;;;;4.37;71.70;99808.28;5090650;28;20052;-61
2022/04/10 02:33:22;;;;;;;7.88;2.80;;;;;;;4.36;71.69;99812.63;5091174;28;20126;-61
2022/04/10 02:35:49;;;;;;;11.38;2.50;;;;;;;4.35;71.99;99812.69;5090155;28;20485;-62
2022/04/10 02:38:16;;;;;;;6.20;2.05;;;;;;;4.34;71.77;99810.97;5090672;28;20055;-61
2022/04/10 02:40:43;;;;;;;8.00;2.83;;;;;;;4.33;71.50;99815.34;5089279;28;20059;-60
2022/04/10 02:43:10;;;;;;;6.80;2.33;;;;;;;4.32;71.89;99823.19;5089676;28;20049;-61
2022/04/10 02:45:37;;;;;;;8.52;2.35;;;;;;;4.30;71.89;99818.88;5091134;28;20056;-60
2022/04/10 02:48:04;;;;;;;12.50;2.92;;;;;;;4.28;71.98;99812.88;5090994;28;20408;-61
2022/04/10 02:50:31;;;;;;;9.90;2.70;;;;;;;4.27;71.88;99821.56;5090829;28;20044;-61
2022/04/10 02:52:57;;;;;;;9.32;2.50;;;;;;;4.26;71.75;99819.88;5090678;28;20668;-60
2022/04/10 02:55:24;;;;;;;9.40;2.80;;;;;;;4.25;72.01;99817.31;5090748;28;20149;-61
2022/04/10 02:57:50;;;;;;;15.85;3.33;;;;;;;4.24;71.89;99826.03;5090531;28;20044;-60
2022/04/10 03:00:17;;;;;;;6.13;3.08;;;;;;;4.22;71.94;99826.06;5090306;28;20545;-60
2022/04/10 03:02:46;;;;;;;7.88;2.38;;;;;;;4.20;71.92;99825.28;5090571;28;20051;-61
2022/04/10 03:05:15;;;;;;;6.60;2.40;;;;;;;4.19;72.17;99823.59;5090584;28;20048;-60
2022/04/10 03:07:41;;;;;;;8.82;2.90;;;;;;;4.17;72.33;99817.53;5090360;28;20055;-60
2022/04/10 03:10:08;;;;;;;11.82;3.15;;;;;;;4.16;72.20;99818.44;5089997;28;20048;-63
2022/04/10 03:12:35;;;;;;;4.70;2.70;;;;;;;4.14;72.14;99821.09;5090578;28;20094;-61
2022/04/10 03:15:02;;;;;;;8.18;3.28;;;;;;;4.13;72.29;99828.97;5090702;28;20051;-60
2022/04/10 03:17:28;;;;;;;9.55;3.50;;;;;;;4.14;72.47;99834.13;5090265;28;20451;-60
2022/04/10 03:19:55;;;;;;;9.10;3.22;;;;;;;4.13;72.47;99826.34;5090212;28;20450;-60
2022/04/10 03:22:22;;;;;;;14.43;3.00;;;;;;;4.11;72.04;99833.38;5090261;28;20105;-61
2022/04/10 03:24:48;;;;;;;9.45;2.88;;;;;;;4.10;72.05;99839.47;5090291;28;20461;-62
2022/04/10 03:27:15;;;;;;;6.75;2.65;;;;;;;4.08;72.16;99842.13;5090363;28;20055;-60
2022/04/10 03:29:41;;;;;;;12.90;2.95;;;;;;;4.06;72.39;99835.22;5090362;28;20052;-60
2022/04/10 03:32:08;;;;;;;9.07;3.17;;;;;;;4.05;72.66;99842.22;5090340;28;20048;-61
2022/04/10 03:34:35;;;;;;;6.40;2.85;;;;;;;4.04;72.65;99843.94;5090396;28;20054;-62
2022/04/10 03:37:01;;;;;;;5.22;3.15;;;;;;;4.03;72.67;99851.81;5090094;28;20055;-62
2022/04/10 03:39:28;;;;;;;10.60;3.10;;;;;;;4.03;72.54;99860.50;5089871;28;20782;-60
2022/04/10 03:41:54;;;;;;;12.50;2.95;;;;;;;4.02;72.68;99857.91;5090292;28;20052;-60
2022/04/10 03:44:21;;;;;;;9.27;3.22;;;;;;;4.01;72.44;99858.81;5089049;28;20562;-60
2022/04/10 03:46:47;;;;;;;11.73;3.17;;;;;;;4.00;72.42;99865.78;5089964;28;20052;-61
2022/04/10 03:49:14;;;;;;;7.38;3.17;;;;;;;3.99;72.53;99864.06;5093527;28;20062;-60
2022/04/10 03:51:41;;;;;;;7.35;2.85;;;;;;;3.98;72.54;99872.78;5093928;28;20494;-60
2022/04/10 03:54:07;;;;;;;11.65;3.60;;;;;;;3.99;72.72;99873.63;5092661;28;20044;-60
2022/04/10 03:56:34;;;;;;;12.13;3.13;;;;;;;3.98;72.84;99874.53;5093945;28;20040;-60
2022/04/10 03:59:00;;;;;;;7.68;2.72;;;;;;;3.98;72.50;99878.00;5093910;28;20102;-60
2022/04/10 04:01:27;;;;;;;8.20;3.47;;;;;;;3.97;72.37;99873.69;5093590;28;20594;-62
2022/04/10 04:03:54;;;;;;;10.82;3.83;;;;;;;3.96;72.52;99884.97;5093658;28;20044;-60
2022/04/10 04:06:20;;;;;;;12.20;3.28;;;;;;;3.94;72.87;99881.59;5093741;28;20109;-60
2022/04/10 04:08:47;;;;;;;10.35;3.30;;;;;;;3.93;72.73;99882.50;5093553;28;20059;-60
2022/04/10 04:11:13;;;;;;;12.27;3.17;;;;;;;3.92;72.88;99883.34;5092124;28;20408;-61
2022/04/10 04:13:40;;;;;;;7.43;3.30;;;;;;;3.91;72.45;99894.69;5093622;28;20632;-61
2022/04/10 04:16:08;;;;;;;17.50;3.30;;;;;;;3.90;73.07;99892.97;5092343;28;20051;-59
2022/04/10 04:18:35;;;;;;;10.77;3.33;;;;;;;3.91;73.13;99905.09;5093402;28;20097;-60
2022/04/10 04:21:02;;;;;;;11.63;3.20;;;;;;;3.89;72.90;99901.69;5093293;28;20047;-59
2022/04/10 04:23:32;;;;;;;17.08;3.45;;;;;;;3.89;73.07;99907.75;5093798;28;20079;-61
2022/04/10 04:25:59;;;;;;;8.20;3.08;;;;;;;3.89;72.79;99917.31;5093695;28;20131;-61
2022/04/10 04:28:26;;;;;;;12.73;2.80;;;;;;;3.88;73.07;99911.25;5093802;28;20059;-62
2022/04/10 04:30:52;;;;;;;13.35;3.53;;;;;;;3.88;73.19;99915.59;5093236;28;20056;-60
2022/04/10 04:33:19;;;;;;;8.63;3.08;;;;;;;3.87;73.32;99922.56;5093303;28;20134;-60
2022/04/10 04:35:46;;;;;;;8.20;3.10;;;;;;;3.89;73.18;99919.94;5093335;28;20059;-60
2022/04/10 04:38:13;;;;;;;6.75;2.78;;;;;;;3.88;73.23;99915.59;5091885;28;20048;-59
2022/04/10 04:40:39;;;;;;;10.00;3.38;;;;;;;3.88;73.18;99924.25;5093088;28;20052;-60
2022/04/10 04:43:08;;;;;;;8.73;3.00;;;;;;;3.89;72.92;99927.75;5093390;28;20052;-62
2022/04/10 04:45:35;;;;;;;10.00;2.92;;;;;;;3.90;73.29;99929.44;5091900;28;20632;-61
2022/04/10 04:48:02;;;;;;;6.78;2.63;;;;;;;3.91;73.31;99928.53;5091807;28;20052;-60
2022/04/10 04:50:29;;;;;;;6.97;2.33;;;;;;;3.91;73.25;99934.63;5093172;28;20060;-61
2022/04/10 04:52:56;;;;;;;12.23;2.88;;;;;;;3.94;73.13;99931.06;5093244;28;20048;-60
2022/04/10 04:55:22;;;;;;;8.50;2.72;;;;;;;3.93;72.93;99924.16;5093064;28;20160;-61
2022/04/10 04:57:49;;;;;;;7.45;2.90;;;;;;;3.95;73.04;99937.09;5092922;28;20044;-60
2022/04/10 05:00:16;;;;;;;13.27;3.65;;;;;;;3.94;73.10;99931.06;5092143;28;20060;-60
2022/04/10 05:02:43;;;;;;;10.50;3.42;;;;;;;3.93;73.18;99939.78;5091596;28;20066;-61
2022/04/10 05:05:28;;;;;;;10.77;3.00;;;;;;;3.90;72.40;99942.47;5092711;28;20466;-60
2022/04/10 05:07:55;;;;;;;9.75;2.70;;;;;;;3.95;73.31;99943.19;5090774;28;20059;-60
2022/04/10 05:10:21;;;;;;;7.32;2.33;;;;;;;3.95;73.38;99951.00;5092489;28;20052;-60
2022/04/10 05:12:48;;;;;;;8.93;2.65;;;;;;;3.96;73.49;99947.50;5092569;28;20044;-60
2022/04/10 05:15:14;;;;;;;13.40;3.13;;;;;;;3.96;73.51;99957.91;5092446;28;20055;-62
2022/04/10 05:17:41;;;;;;;10.95;3.05;;;;;;;3.97;73.69;99957.03;5092304;28;20047;-60
2022/04/10 05:20:08;;;;;;;9.38;2.80;;;;;;;4.00;73.83;99948.28;5092372;28;20052;-61
2022/04/10 05:22:35;;;;;;;14.18;2.83;;;;;;;4.00;73.39;99951.72;5092166;28;20209;-62
2022/04/10 05:25:01;;;;;;;8.02;2.30;;;;;;;4.02;73.68;99952.56;5092038;28;20044;-61
2022/04/10 05:27:28;;;;;;;9.65;2.40;;;;;;;4.04;73.49;99961.16;5092281;28;20067;-60
2022/04/10 05:29:54;;;;;;;7.53;2.60;;;;;;;4.07;73.89;99962.00;5091942;28;20075;-61
2022/04/10 05:32:21;;;;;;;7.63;2.42;;;;;;;4.10;73.80;99962.75;5091930;28;20047;-63
2022/04/10 05:34:48;;;;;;;10.95;3.00;;;;;;;4.12;73.81;99962.72;5091984;28;20086;-61
2022/04/10 05:37:14;;;;;;;11.65;2.50;;;;;;;4.16;73.72;99961.75;5091867;28;20487;-61
2022/04/10 05:39:42;;;;;;;9.70;2.58;;;;;;;4.19;74.03;99966.03;5091736;28;20074;-60
2022/04/10 05:42:09;;;;;;;8.20;2.60;;;;;;;4.22;74.10;99971.16;5092097;28;20044;-60
2022/04/10 05:44:36;;;;;;;9.57;2.60;;;;;;;4.26;73.93;99972.78;5091783;28;20048;-60
2022/04/10 05:47:03;;;;;;;9.38;2.95;;;;;;;4.28;73.92;99973.59;5091804;28;20052;-61
2022/04/10 05:49:29;;;;;;;11.07;2.45;;;;;;;4.32;73.64;99990.84;5091583;28;20044;-62
2022/04/10 05:51:56;;;;;;;14.98;2.70;;;;;;;4.35;73.81;99990.78;5092077;28;20052;-60
2022/04/10 05:54:23;;;;;;;9.05;2.55;;;;;;;4.40;74.14;99994.09;5092010;28;20217;-60
2022/04/10 05:56:49;;;;;;;8.40;2.85;;;;;;;4.46;74.20;100003.50;5091552;28;20052;-61
2022/04/10 05:59:16;;;;;;;5.35;2.22;;;;;;;4.53;74.52;100004.19;5091473;28;20452;-61
2022/04/10 06:01:43;;;;;;;11.30;3.00;;;;;;;4.58;74.64;100010.13;5091774;28;20492;-60
2022/04/10 06:04:09;;;;;;;8.80;2.83;;;;;;;4.65;74.75;100013.41;5090962;28;20672;-63
2022/04/10 06:06:36;;;;;;;10.65;2.70;;;;;;;4.72;74.44;100012.34;5091204;28;20058;-60
2022/04/10 06:09:03;;;;;;;8.05;2.45;;;;;;;4.79;74.57;100021.69;5090831;28;20040;-61
2022/04/10 06:11:29;;;;;;;7.68;2.90;;;;;;;4.87;74.22;100028.44;5090217;28;20153;-60
2022/04/10 06:13:56;;;;;;;7.90;2.50;;;;;;;4.91;73.93;100024.84;5091612;28;20044;-62
2022/04/10 06:16:22;;;;;;;11.10;2.88;;;;;;;4.96;73.61;100022.97;5090222;28;20455;-59
2022/04/10 06:18:49;;;;;;;7.60;2.50;;;;;;;4.99;73.68;100027.22;5091068;28;20128;-60
2022/04/10 06:21:16;;;;;;;6.38;2.75;;;;;;;5.00;73.41;100037.63;5091012;28;20496;-60
2022/04/10 06:23:42;;;;;;;7.72;2.60;;;;;;;5.04;73.33;100040.97;5091308;28;20048;-63
2022/04/10 06:26:09;;;;;;;6.07;3.08;;;;;;;5.04;73.22;100035.75;5091262;28;20120;-67
2022/04/10 06:28:35;;;;;;;11.50;3.08;;;;;;;5.05;73.11;100038.34;5091011;28;20105;-60
2022/04/10 06:31:02;;;;;;;8.65;2.83;;;;;;;5.05;73.21;100027.91;5090684;28;20569;-59
2022/04/10 06:33:29;;;;;;;6.80;2.90;;;;;;;5.07;73.90;100027.84;5091195;28;20083;-63
2022/04/10 06:35:55;;;;;;;9.07;2.92;;;;;;;5.12;74.02;100025.94;5089626;28;20455;-60
2022/04/10 06:38:22;;;;;;;6.57;2.40;;;;;;;5.17;74.36;100033.66;5089826;28;20101;-61
2022/04/10 06:40:51;;;;;;;14.52;3.30;;;;;;;5.25;74.85;100026.44;5090842;28;20060;-60
2022/04/10 06:43:19;;;;;;;12.98;2.85;;;;;;;5.34;75.23;100033.13;5089991;28;20055;-60
2022/04/10 06:45:47;;;;;;;8.70;3.53;;;;;;;5.44;75.02;100038.94;5089504;28;20516;-60
2022/04/10 06:48:15;;;;;;;9.73;3.33;;;;;;;5.55;75.14;100042.06;5089751;28;20590;-60
2022/04/10 06:50:41;;;;;;;9.02;3.00;;;;;;;5.66;74.74;100033.03;5090636;28;20055;-61
2022/04/10 06:53:08;;;;;;;11.52;2.72;;;;;;;5.75;74.81;100043.19;5090913;28;20072;-59
2022/04/10 06:55:34;;;;;;;11.55;2.97;;;;;;;5.83;74.27;100045.56;5090791;28;20125;-60
2022/04/10 06:58:01;;;;;;;12.20;3.30;;;;;;;5.91;74.32;100045.31;5090828;28;20377;-61
2022/04/10 07:00:28;;;;;;;6.88;2.85;;;;;;;5.96;74.01;100059.94;5090656;28;20055;-61
2022/04/10 07:02:54;;;;;;;8.57;2.60;;;;;;;6.03;73.96;100054.47;5090518;28;20091;-60
2022/04/10 07:05:21;;;;;;;8.95;2.55;;;;;;;6.08;73.86;100060.44;5090695;28;20044;-62
2022/04/10 07:07:48;;;;;;;6.45;2.47;;;;;;;6.13;73.56;100061.13;5089400;28;20070;-59
2022/04/10 07:10:15;;;;;;;3.85;2.13;;;;;;;6.19;73.89;100065.31;5090184;28;20066;-60
2022/04/10 07:12:41;;;;;;;5.65;2.60;;;;;;;6.25;73.76;100065.94;5090497;28;20717;-62
2022/04/10 07:15:08;;;;;;;7.95;2.72;;;;;;;6.31;74.03;100067.50;5089445;28;20056;-60
2022/04/10 07:17:34;;;;;;;7.75;2.45;;;;;;;6.37;74.09;100063.84;5090895;28;20052;-59
2022/04/10 07:20:01;;;;;;;6.38;2.35;;;;;;;6.43;74.09;100071.44;5090665;28;20504;-59
2022/04/10 07:25:13;;;;;;;9.65;2.75;;;;;;;6.56;73.59;100079.75;5093853;28;20044;-60
2022/04/10 07:27:39;;;;;;;9.02;2.08;;;;;;;6.60;73.58;100064.78;5093641;28;20052;-59
2022/04/10 07:30:06;;;;;;;12.40;2.67;;;;;;;6.63;73.13;100065.53;5094255;28;20481;-62
2022/04/10 07:32:33;;;;;;;5.00;1.95;;;;;;;6.68;73.10;100069.72;5094446;28;20044;-59
2022/04/10 07:35:04;;;;;;;7.60;2.13;;;;;;;6.71;72.78;100078.34;5094230;28;20060;-59
2022/04/10 07:37:30;;;;;;;5.38;1.90;;;;;;;6.78;73.59;100077.19;5092930;28;20126;-61
2022/04/10 07:39:57;;;;;;;4.25;1.70;;;;;;;6.84;73.71;100075.28;5093768;28;20492;-59
2022/04/10 07:42:29;;;;;;;8.60;1.85;;;;;;;6.91;73.42;100075.00;5093997;28;20051;-60
2022/04/10 07:45:05;;;;;;;8.40;1.83;;;;;;;6.98;73.37;100088.72;5092891;28;20048;-62
2022/04/10 07:47:31;;;;;;;4.10;1.58;;;;;;;7.04;73.08;100082.41;5092897;28;20059;-59
2022/04/10 07:49:58;;;;;;;5.50;1.58;;;;;;;7.10;72.98;100082.16;5093764;28;20055;-62
2022/04/10 07:52:25;;;;;;;6.20;1.73;;;;;;;7.16;73.23;100087.19;5093864;28;20048;-60
2022/04/10 07:54:54;;;;;;;7.07;1.90;;;;;;;7.23;73.31;100086.94;5092850;28;20055;-61
2022/04/10 07:57:21;;;;;;;3.45;1.40;;;;;;;7.28;72.99;100087.63;5093031;28;20052;-60
2022/04/10 07:59:47;;;;;;;5.40;1.88;;;;;;;7.34;72.95;100100.50;5093819;28;20054;-59
2022/04/10 08:02:14;;;;;;;5.22;1.60;;;;;;;7.37;72.19;100100.34;5094255;28;20077;-60
2022/04/10 08:04:41;;;;;;;7.15;1.60;;;;;;;7.40;71.86;100096.78;5093919;28;20059;-61
2022/04/10 08:07:08;;;;;;;5.50;2.10;;;;;;;7.41;72.28;100101.09;5094042;28;20469;-60
2022/04/10 08:09:34;;;;;;;3.88;1.83;;;;;;;7.45;71.75;100101.84;5093393;28;20512;-60
2022/04/10 08:12:01;;;;;;;5.03;1.50;;;;;;;7.46;71.58;100104.41;5093793;28;20051;-60
2022/04/10 08:14:28;;;;;;;4.65;1.80;;;;;;;7.48;71.88;100118.28;5093812;28;20055;-60
2022/04/10 08:16:54;;;;;;;7.20;2.30;;;;;;;7.51;72.13;100112.94;5093725;28;20060;-60
2022/04/10 08:19:21;;;;;;;8.32;1.70;;;;;;;7.56;72.40;100115.38;5093275;28;20052;-60
2022/04/10 08:21:48;;;;;;;5.03;1.50;;;;;;;7.61;72.57;100123.03;5093619;28;20121;-60
2022/04/10 08:24:14;;;;;;;4.32;1.40;;;;;;;7.67;72.38;100122.81;5093611;28;20064;-60
2022/04/10 08:26:41;;;;;;;5.80;1.80;;;;;;;7.73;72.64;100127.81;5093594;28;20052;-60
2022/04/10 08:29:07;;;;;;;10.18;2.33;;;;;;;7.81;73.26;100131.00;5093353;28;20052;-61
2022/04/10 08:31:34;;;;;;;4.80;1.90;;;;;;;7.92;73.40;100133.19;5092230;28;20055;-62
2022/04/10 08:34:00;;;;;;;3.30;1.60;;;;;;;8.02;73.41;100130.19;5092577;28;20048;-60
2022/04/10 08:36:27;;;;;;;7.25;1.60;;;;;;;8.14;72.52;100126.22;5093662;28;20051;-59
2022/04/10 08:38:54;;;;;;;4.53;1.73;;;;;;;8.23;72.42;100130.25;5093365;28;20101;-59
2022/04/10 08:41:21;;;;;;;6.15;2.05;;;;;;;8.30;72.13;100143.03;5092939;28;20062;-60
2022/04/10 08:43:48;;;;;;;4.68;1.70;;;;;;;8.38;72.44;100158.47;5093189;28;20415;-59
2022/04/10 08:46:19;;;;;;;4.93;1.42;;;;;;;8.45;71.17;100159.91;5093559;28;20063;-61
2022/04/10 08:48:45;;;;;;;4.93;1.50;;;;;;;8.55;71.74;100157.78;5093055;28;20052;-63
2022/04/10 08:51:12;;;;;;;5.70;2.03;;;;;;;8.62;71.77;100157.50;5092844;28;20396;-60
2022/04/10 08:53:39;;;;;;;6.80;1.67;;;;;;;8.68;71.93;100152.00;5092903;28;20094;-60
2022/04/10 08:56:08;;;;;;;4.68;1.40;;;;;;;8.73;70.49;100155.28;5093037;28;20056;-59
2022/04/10 08:58:35;;;;;;;4.68;1.60;;;;;;;8.84;71.76;100163.56;5092857;28;20056;-61
2022/04/10 09:01:01;;;;;;;4.93;1.77;;;;;;;8.92;71.38;100160.59;5092612;28;20083;-60
2022/04/10 09:03:28;;;;;;;4.40;1.33;;;;;;;9.00;70.75;100162.88;5093204;28;20052;-60
2022/04/10 09:06:21;;;;;;;4.30;1.48;;;;;;;9.01;67.44;100158.50;5092869;28;20044;-60
2022/04/10 09:08:47;;;;;;;3.67;1.35;;;;;;;9.09;70.43;100165.09;5091484;28;20450;-60
2022/04/10 09:11:14;;;;;;;2.97;1.25;;;;;;;9.15;70.57;100165.78;5092199;28;20484;-60
2022/04/10 09:13:51;;;;;;;6.78;1.45;;;;;;;9.18;69.84;100161.22;5092254;28;20109;-61
2022/04/10 09:16:22;;;;;;;4.15;1.58;;;;;;;9.24;70.13;100160.09;5092737;28;20052;-60
2022/04/10 09:19:08;;;;;;;5.28;1.20;;;;;;;9.28;67.48;100160.81;5091062;28;20047;-61
2022/04/10 09:21:38;;;;;;;4.25;1.30;;;;;;;9.37;69.88;100156.00;5092295;28;20185;-60
2022/04/10 09:24:10;;;;;;;7.63;2.15;;;;;;;9.42;67.32;100158.41;5092172;28;20614;-61
2022/04/10 09:26:57;;;;;;;3.17;1.00;;;;;;;9.49;66.32;100175.59;5092589;28;20044;-60
2022/04/10 09:29:24;;;;;;;9.23;1.63;;;;;;;9.61;69.45;100166.28;5091003;28;20511;-60
2022/04/10 09:31:54;;;;;;;4.05;0.98;;;;;;;9.69;69.03;100165.94;5090822;28;20047;-61
2022/04/10 09:34:27;;;;;;;3.47;1.27;;;;;;;9.75;68.91;100165.66;5091043;28;20508;-60
2022/04/10 09:37:14;;;;;;;4.60;1.15;;;;;;;9.84;68.85;100166.16;5092400;28;20091;-61
2022/04/10 09:39:40;;;;;;;4.15;1.30;;;;;;;9.87;67.62;100156.31;5091592;28;20094;-60
2022/04/10 09:42:10;;;;;;;5.35;1.48;;;;;;;9.91;66.44;100155.25;5091839;28;20420;-61
2022/04/10 09:44:57;;;;;;;2.85;1.13;;;;;;;10.01;68.62;100171.44;5090849;28;20130;-60
2022/04/10 09:47:27;;;;;;;6.22;1.50;;;;;;;10.07;66.30;100172.06;5091766;28;20055;-61
2022/04/10 09:50:04;;;;;;;4.68;1.52;;;;;;;10.08;63.40;100169.38;5091676;28;20056;-61
2022/04/10 09:52:35;;;;;;;3.45;1.15;;;;;;;10.08;64.61;100171.13;5091838;28;20053;-62
2022/04/10 09:55:03;;;;;;;4.25;1.10;;;;;;;10.04;66.27;100173.94;5090444;28;20124;-60
2022/04/10 09:57:30;;;;;;;2.53;0.93;;;;;;;9.96;66.67;100178.72;5091607;28;20484;-60
2022/04/10 10:00:02;;;;;;;3.63;1.17;;;;;;;9.89;65.89;100175.53;5091333;28;20056;-60
2022/04/10 10:02:28;;;;;;;4.43;1.00;;;;;;;9.88;67.58;100165.91;5090369;28;20074;-61
2022/04/10 10:04:56;;;;;;;5.15;1.23;;;;;;;9.89;67.83;100172.03;5091474;28;20060;-60
2022/04/10 10:07:22;;;;;;;3.67;1.42;;;;;;;9.91;68.20;100165.78;5091431;28;20075;-60
2022/04/10 10:09:49;;;;;;;5.00;1.58;;;;;;;9.98;68.65;100168.13;5091103;28;20055;-60
2022/04/10 10:12:17;;;;;;;3.33;1.10;;;;;;;10.07;69.58;100169.44;5091482;28;20101;-62
2022/04/10 10:14:44;;;;;;;4.95;1.38;;;;;;;10.22;70.63;100162.59;5091224;28;20044;-62
2022/04/10 10:17:11;;;;;;;4.63;1.63;;;;;;;10.41;70.64;100162.53;5090027;28;20051;-61
2022/04/10 10:19:39;;;;;;;5.60;1.70;;;;;;;10.59;69.84;100166.06;5090851;28;20112;-61
2022/04/10 10:22:08;;;;;;;5.78;1.33;;;;;;;10.73;67.53;100167.97;5091271;28;20074;-61
2022/04/10 10:24:43;;;;;;;5.97;1.13;;;;;;;10.82;66.84;100183.31;5090205;28;20055;-60
2022/04/10 10:27:19;;;;;;;2.25;1.20;;;;;;;10.80;64.95;100176.41;5091245;28;20051;-61
2022/04/10 10:30:07;;;;;;;6.10;1.60;;;;;;;10.71;64.42;100185.63;5089976;28;20052;-60
2022/04/10 10:32:48;;;;;;;3.67;1.23;;;;;;;10.71;65.36;100175.09;5089764;28;20052;-62
2022/04/10 10:35:31;;;;;;;3.85;0.90;;;;;;;10.69;64.56;100176.94;5091108;28;20040;-61
2022/04/10 10:37:58;;;;;;;2.50;0.90;;;;;;;10.77;68.32;100177.41;5089956;28;20063;-60
2022/04/10 10:40:24;;;;;;;4.60;1.02;;;;;;;10.87;68.38;100171.69;5090634;28;20044;-60
2022/04/10 10:42:55;;;;;;;4.15;1.40;;;;;;;10.97;67.57;100183.47;5089539;28;20056;-60
2022/04/10 10:45:34;;;;;;;9.90;1.40;;;;;;;11.02;64.25;100177.94;5090828;28;20047;-60
2022/04/10 10:48:34;;;;;;;1.75;0.95;;;;;;;11.10;63.76;100174.91;5090822;28;20056;-61
2022/04/10 10:51:10;;;;;;;3.33;1.55;;;;;;;11.21;64.30;100180.44;5088571;28;20696;-60
2022/04/10 10:53:48;;;;;;;7.10;1.60;;;;;;;11.32;65.47;100171.97;5090726;28;20048;-63
2022/04/10 10:56:17;;;;;;;3.20;1.35;;;;;;;11.47;67.03;100168.53;5089165;28;20408;-61
2022/04/10 10:59:22;;;;;;;4.00;1.35;;;;;;;11.68;66.10;100164.78;5090361;28;20408;-61
2022/04/10 11:02:01;;;;;;;4.35;1.60;;;;;;;11.93;68.06;100169.53;5090438;28;20443;-60
2022/04/10 11:04:33;;;;;;;4.18;1.50;;;;;;;12.24;67.96;100167.00;5090973;28;20534;-61
2022/04/10 11:07:19;;;;;;;5.53;1.40;;;;;;;12.61;67.70;100166.66;5089249;28;20045;-60
2022/04/10 11:09:53;;;;;;;3.70;1.52;;;;;;;13.10;71.29;100167.28;5089062;28;20122;-61
2022/04/10 11:12:21;;;;;;;4.07;1.23;;;;;;;13.56;69.27;100158.31;5089131;28;20097;-61
2022/04/10 11:14:51;;;;;;;3.65;1.42;;;;;;;14.03;70.40;100163.28;5089242;28;20105;-61
2022/04/10 11:17:26;;;;;;;6.68;1.33;;;;;;;14.55;65.39;100158.16;5089285;28;20044;-61
2022/04/10 11:19:55;;;;;;;4.90;1.23;;;;;;;15.11;67.72;100165.81;5088979;28;20098;-63
2022/04/10 11:22:25;;;;;;;5.70;1.40;;;;;;;15.54;64.10;100157.59;5089165;28;20101;-60
2022/04/10 11:24:53;;;;;;;3.90;1.15;;;;;;;15.72;60.68;100155.44;5089055;28;20446;-60
2022/04/10 11:27:42;;;;;;;7.00;1.67;;;;;;;15.64;50.51;100166.59;5089265;28;20052;-60
2022/04/10 11:30:12;;;;;;;6.03;1.52;;;;;;;15.56;56.81;100171.63;5090156;28;20044;-63
2022/04/10 11:32:47;;;;;;;5.38;1.42;;;;;;;15.40;56.85;100175.34;5090285;28;20660;-61
2022/04/10 11:35:22;;;;;;;3.08;1.00;;;;;;;15.45;58.44;100178.53;5090136;28;20130;-61
2022/04/10 11:37:59;;;;;;;5.57;1.58;;;;;;;15.68;61.18;100181.34;5090373;28;20082;-61
2022/04/10 11:40:31;;;;;;;4.47;1.08;;;;;;;15.88;57.69;100189.66;5088452;28;20078;-61
2022/04/10 11:43:00;;;;;;;2.72;0.98;;;;;;;16.08;59.44;100176.78;5087822;28;20072;-61
2022/04/10 11:45:31;;;;;;;3.67;1.40;;;;;;;16.31;60.42;100177.75;5090317;28;20121;-60